Aviation Digital Data Service (ADDS)

Output produced by METARs form (0218 UTC 16 January 2019)
found at http://www.aviationweather.gov/metar/data/
 
KRAP 160150Z 1602/1624 02011KT P6SM BKN200 
     TEMPO 1602/1604 BKN008 
     FM160400 14005KT 2SM BR OVC006 
     FM161600 12008KT P6SM OVC015
       
KRBG 152334Z 1600/1624 VRB03KT P6SM SCT006 OVC060 
     FM160900 00000KT 2SM BR VCSH OVC050 
     FM161200 VRB03KT 6SM BR OVC050 
     FM162200 36005KT P6SM -RA OVC050
       
KRBL 152341Z 1600/1624 13012KT 6SM -RA FEW017 BKN035 OVC050 
     FM160300 14008KT 5SM -RA BR OVC025 
     FM161200 15007KT 5SM -RA OVC015 
     FM161500 16009KT 3SM -RA OVC010 
     FM161800 16014KT 4SM -RA BR OVC007 
     FM162300 15022G29KT 2SM RA BR OVC015
       
TAF AMD KRCA 160005Z 1600/1701 34012KT 9999 SKC QNH3005INS 
     BECMG 1605/1606 12009KT 0600 FZFG VV001 620015 QNH2999INS 
     BECMG 1611/1612 15009KT 0600 PL FZFG VV001 620104 QNH2995INS 
     TEMPO 1612/1615 FZDZ 660001 
     BECMG 1621/1622 15009KT 0600 FZFG VV001 620104 QNH2995INS TX01/1600Z
TNM06/1612Z
       
KRDD 152342Z 1600/1624 VRB03KT 6SM -RA BR SCT007 BKN029 OVC040 
     FM160300 17004KT 5SM -RA BR OVC025 
     FM161200 18006KT 5SM -RA OVC015 
     FM161500 18010KT 3SM -RA BR OVC010 
     FM161800 18015KT 2SM -RA BR OVC007 
     FM162300 16022G29KT 1 1/2SM RA BR OVC015
       
KRDG 152329Z 1600/1624 VRB03KT P6SM SCT250 
     FM160800 26004KT P6SM BKN035 
     FM161500 27008KT P6SM BKN035 
     FM162200 28008KT P6SM SCT035
       
KRDM 160206Z 1602/1624 32006KT P6SM OVC007 
     FM161200 VRB03KT 2SM -SN BR OVC005 
     FM161700 13004KT P6SM SCT005 BKN060 
     FM162100 13006KT P6SM -RASN OVC050
       
TAF KRDR 160208Z 1602/1708 35012KT 9999 FEW020 QNH3020INS 
     BECMG 1617/1618 15006KT 9999 SCT120 QNH3015INS TXM14/1621Z TNM20/1612Z
       
KRDU 152339Z 1600/1624 VRB02KT P6SM FEW030 
     FM160500 VRB03KT P6SM SKC 
     TEMPO 1611/1613 6SM BR 
     FM161600 27005KT P6SM SCT250
       
KRIC 152342Z 1600/1624 VRB02KT P6SM SCT250 
     FM161400 25006KT P6SM FEW040 SCT250 
     FM161900 28007KT P6SM SCT050 SCT250
       
KRIL 152344Z 1600/1624 00000KT P6SM OVC060 
     FM160100 17005KT P6SM VCSH BKN040 OVC060 
     FM160800 22005KT 3SM -SHSN BR BKN015 OVC045 
     FM161400 VRB04KT 1 1/2SM -SHSN BR BKN008 OVC035
       
TAF KRIV 152015Z 1520/1702 13010KT 9999 VCSH SCT045 BKN100 BKN200 QNH3000INS 
     BECMG 1601/1602 13010KT 9999 VCSH SCT020 BKN030 OVC045 620606 QNH3003INS 
     TEMPO 1601/1609 15012G18KT 6000 RA BR SCT010 BKN015 OVC030 510009 
     BECMG 1609/1610 15007KT 9999 VCSH SCT020 BKN035 QNH3008INS 
     TEMPO 1610/1620 9000 -RA BR BKN020 OVC030 TX13/1522Z TN08/1613Z
       
KRIW 152320Z 1600/1624 VRB04KT P6SM FEW140 BKN200 
     FM161500 VRB04KT P6SM SCT060 BKN100 
     FM161900 VRB04KT P6SM SCT030 BKN060
       
KRKD 152320Z 1600/1624 VRB02KT P6SM FEW040 
     FM161500 24012G20KT P6SM BKN100
       
KRKS 152320Z 1600/1624 20005KT P6SM SCT060 BKN100 
     FM160200 23006KT P6SM SCT030 BKN060 
     FM160700 25007KT 4SM -SN SCT010 OVC020 
     FM161500 24009KT 2SM -SN SCT006 OVC010
       
KRME 152320Z 1600/1624 VRB03KT 5SM -SHSN OVC015 
     TEMPO 1603/1607 6SM -SHSN OVC025 
     FM161600 26013KT P6SM OVC015
       
KRNO 152324Z 1600/1624 14008KT 2SM -SN BKN015 OVC025 
     FM160300 VRB04KT 6SM -SNRA SCT012 BKN025 OVC040 
     TEMPO 1603/1606 2SM -SN BKN010 OVC020 
     FM160800 17011KT P6SM VCSH SCT025 BKN035 BKN070 
     FM161800 16016G25KT P6SM SCT035 BKN070 WS020/20040KT
       
KROA 152326Z 1600/1624 30006KT P6SM SCT040 
     FM161500 29008G16KT P6SM SCT250 
     FM162100 29007KT P6SM FEW250
       
KROC 152323Z 1600/1624 23012KT P6SM OVC015 
     FM160300 23009KT P6SM OVC025 
     FM160400 23011G18KT P6SM BKN020 
     FM160800 23014G25KT P6SM VCSH BKN020 
     FM161100 24017G30KT 6SM -SHSN OVC025 
     FM161700 27017G29KT P6SM VCSH BKN030 
     FM162100 29015G23KT P6SM BKN035
       
KROG 152328Z 1600/1624 19006KT P6SM BKN035 
     FM160900 19005KT 4SM BR BKN025 
     FM161600 17009KT P6SM BKN025
       
KROW 152324Z 1600/1624 18008KT P6SM SKC 
     FM160100 22006KT P6SM BKN250 
     FM160800 22006KT P6SM SCT015 BKN150 
     FM161800 26012KT P6SM SCT250 
     FM162200 30010KT P6SM SCT250
       
KRSL 152339Z 1600/1624 22006KT P6SM FEW020 
     FM160300 25005KT 4SM BR SCT010 
     FM160800 35005KT 3SM BR SCT020 BKN035 
     FM161200 03006KT 2SM BR OVC020 
     FM161600 07006KT 5SM BR OVC009
       
KRST 152328Z 1600/1624 30019G26KT P6SM OVC009 
     FM160100 32019G26KT P6SM OVC015 
     FM160400 34013G19KT P6SM SKC 
     FM161000 35012KT P6SM SKC 
     FM161500 05007KT P6SM SKC
       
KRSW 152322Z 1600/1624 34005KT P6SM SKC 
     FM160700 02004KT P6SM SCT200 
     FM162100 36007KT P6SM SKC
       
KRUT 152337Z 1600/1624 VRB03KT P6SM BKN035 
     FM161400 21008G16KT P6SM BKN040 
     FM161800 25010G19KT P6SM VCSH BKN035 
     FM162300 29008G18KT P6SM BKN090
       
KRVS 152328Z 1600/1624 18003KT P6SM SCT035 
     FM160900 18003KT 4SM BR BKN025 
     FM161600 16009KT P6SM BKN025
       
KRWI 160159Z 1602/1624 00000KT 6SM BR SKC 
     TEMPO 1602/1605 4SM BR 
     FM161300 VRB03KT P6SM FEW018 
     FM161500 25006KT P6SM SKC
       
KRWL 152336Z 1600/1624 VRB05KT P6SM SCT050 BKN100 
     FM160700 23007KT 4SM -SHSN SCT015 OVC025 
     FM161000 23008KT 2SM -SN SCT007 OVC012 
     FM162200 25017G24KT 6SM BR VCSH OVC015
       
KRYY 152320Z 1600/1624 30005KT P6SM FEW250 
     FM160200 00000KT P6SM FEW250 
     FM161500 31006KT P6SM FEW250